sensor_id;sensor_type;location;lat;lon;timestamp;temperature;humidity
66343;DHT22;53144;51.524;5.080;2023-02-19T00:02:23;10.92;89.98
66343;DHT22;53144;51.524;5.080;2023-02-19T00:04:49;10.91;89.99
66343;DHT22;53144;51.524;5.080;2023-02-19T00:07:14;10.95;89.62
66343;DHT22;53144;51.524;5.080;2023-02-19T00:09:39;10.94;89.38
66343;DHT22;53144;51.524;5.080;2023-02-19T00:12:05;10.88;89.57
66343;DHT22;53144;51.524;5.080;2023-02-19T00:14:30;10.85;89.35
66343;DHT22;53144;51.524;5.080;2023-02-19T00:16:56;10.84;89.42
66343;DHT22;53144;51.524;5.080;2023-02-19T00:19:21;10.88;89.27
66343;DHT22;53144;51.524;5.080;2023-02-19T00:21:49;10.81;89.27
66343;DHT22;53144;51.524;5.080;2023-02-19T00:24:15;10.79;89.07
66343;DHT22;53144;51.524;5.080;2023-02-19T00:26:41;10.82;88.81
66343;DHT22;53144;51.524;5.080;2023-02-19T00:29:08;10.81;88.73
66343;DHT22;53144;51.524;5.080;2023-02-19T00:31:34;10.78;88.92
66343;DHT22;53144;51.524;5.080;2023-02-19T00:34:03;10.77;88.99
66343;DHT22;53144;51.524;5.080;2023-02-19T00:36:29;10.71;89.24
66343;DHT22;53144;51.524;5.080;2023-02-19T00:38:55;10.68;89.29
66343;DHT22;53144;51.524;5.080;2023-02-19T00:41:21;10.71;89.07
66343;DHT22;53144;51.524;5.080;2023-02-19T00:43:58;10.67;89.08
66343;DHT22;53144;51.524;5.080;2023-02-19T00:46:26;10.63;89.29
66343;DHT22;53144;51.524;5.080;2023-02-19T00:48:52;10.61;89.18
66343;DHT22;53144;51.524;5.080;2023-02-19T00:51:18;10.64;89.24
66343;DHT22;53144;51.524;5.080;2023-02-19T00:53:44;10.63;89.34
66343;DHT22;53144;51.524;5.080;2023-02-19T00:56:09;10.63;89.33
66343;DHT22;53144;51.524;5.080;2023-02-19T00:58:35;10.61;89.38
66343;DHT22;53144;51.524;5.080;2023-02-19T01:01:00;10.61;89.37
66343;DHT22;53144;51.524;5.080;2023-02-19T01:03:26;10.56;89.44
66343;DHT22;53144;51.524;5.080;2023-02-19T01:05:51;10.54;89.66
66343;DHT22;53144;51.524;5.080;2023-02-19T01:08:17;10.56;89.50
66343;DHT22;53144;51.524;5.080;2023-02-19T01:10:43;10.56;89.47
66343;DHT22;53144;51.524;5.080;2023-02-19T01:13:08;10.60;89.30
66343;DHT22;53144;51.524;5.080;2023-02-19T01:15:33;10.58;89.44
66343;DHT22;53144;51.524;5.080;2023-02-19T01:17:59;10.51;89.75
66343;DHT22;53144;51.524;5.080;2023-02-19T01:20:24;10.53;89.59
66343;DHT22;53144;51.524;5.080;2023-02-19T01:22:50;10.53;89.60
66343;DHT22;53144;51.524;5.080;2023-02-19T01:25:16;10.50;89.42
66343;DHT22;53144;51.524;5.080;2023-02-19T01:27:41;10.51;89.50
66343;DHT22;53144;51.524;5.080;2023-02-19T01:30:07;10.51;89.32
66343;DHT22;53144;51.524;5.080;2023-02-19T01:32:32;10.51;89.79
66343;DHT22;53144;51.524;5.080;2023-02-19T01:34:58;10.44;89.58
66343;DHT22;53144;51.524;5.080;2023-02-19T01:37:23;10.48;89.36
66343;DHT22;53144;51.524;5.080;2023-02-19T01:39:48;10.44;89.45
66343;DHT22;53144;51.524;5.080;2023-02-19T01:42:14;10.40;89.59
66343;DHT22;53144;51.524;5.080;2023-02-19T01:48:12;10.46;89.10
66343;DHT22;53144;51.524;5.080;2023-02-19T01:50:45;10.44;89.34
66343;DHT22;53144;51.524;5.080;2023-02-19T01:53:18;10.43;89.23
66343;DHT22;53144;51.524;5.080;2023-02-19T01:55:46;10.40;89.05
66343;DHT22;53144;51.524;5.080;2023-02-19T01:58:13;10.36;89.42
66343;DHT22;53144;51.524;5.080;2023-02-19T02:00:39;10.40;88.90
66343;DHT22;53144;51.524;5.080;2023-02-19T02:03:04;10.40;88.86
66343;DHT22;53144;51.524;5.080;2023-02-19T02:05:37;10.40;88.92
66343;DHT22;53144;51.524;5.080;2023-02-19T02:08:06;10.40;88.95
66343;DHT22;53144;51.524;5.080;2023-02-19T02:10:51;10.38;88.74
66343;DHT22;53144;51.524;5.080;2023-02-19T02:13:17;10.37;88.71
66343;DHT22;53144;51.524;5.080;2023-02-19T02:15:45;10.36;88.64
66343;DHT22;53144;51.524;5.080;2023-02-19T02:18:27;10.32;89.12
66343;DHT22;53144;51.524;5.080;2023-02-19T02:23:45;10.24;89.34
66343;DHT22;53144;51.524;5.080;2023-02-19T02:32:10;10.10;90.47
66343;DHT22;53144;51.524;5.080;2023-02-19T02:35:00;10.03;91.07
66343;DHT22;53144;51.524;5.080;2023-02-19T02:37:30;9.98;91.29
66343;DHT22;53144;51.524;5.080;2023-02-19T02:39:58;10.00;91.23
66343;DHT22;53144;51.524;5.080;2023-02-19T02:42:23;9.96;90.78
66343;DHT22;53144;51.524;5.080;2023-02-19T02:44:52;10.02;90.53
66343;DHT22;53144;51.524;5.080;2023-02-19T02:47:42;10.03;90.37
66343;DHT22;53144;51.524;5.080;2023-02-19T02:50:29;10.03;90.50
66343;DHT22;53144;51.524;5.080;2023-02-19T02:52:59;10.03;90.41
66343;DHT22;53144;51.524;5.080;2023-02-19T02:55:46;10.02;90.17
66343;DHT22;53144;51.524;5.080;2023-02-19T02:58:14;10.05;90.12
66343;DHT22;53144;51.524;5.080;2023-02-19T03:00:42;10.00;90.19
66343;DHT22;53144;51.524;5.080;2023-02-19T03:03:28;10.06;90.25
66343;DHT22;53144;51.524;5.080;2023-02-19T03:05:58;10.03;90.17
66343;DHT22;53144;51.524;5.080;2023-02-19T03:08:35;9.99;90.14
66343;DHT22;53144;51.524;5.080;2023-02-19T03:11:05;9.98;90.03
66343;DHT22;53144;51.524;5.080;2023-02-19T03:14:02;10.00;89.70
66343;DHT22;53144;51.524;5.080;2023-02-19T03:16:47;10.02;89.71
66343;DHT22;53144;51.524;5.080;2023-02-19T03:19:37;9.98;89.76
66343;DHT22;53144;51.524;5.080;2023-02-19T03:22:10;10.03;89.41
66343;DHT22;53144;51.524;5.080;2023-02-19T03:24:49;10.05;89.47
66343;DHT22;53144;51.524;5.080;2023-02-19T03:27:36;10.06;88.91
66343;DHT22;53144;51.524;5.080;2023-02-19T03:30:16;10.05;88.95
66343;DHT22;53144;51.524;5.080;2023-02-19T03:32:48;10.03;89.28
66343;DHT22;53144;51.524;5.080;2023-02-19T03:35:22;9.96;89.85
66343;DHT22;53144;51.524;5.080;2023-02-19T03:38:09;9.99;89.60
66343;DHT22;53144;51.524;5.080;2023-02-19T03:40:43;9.95;89.54
66343;DHT22;53144;51.524;5.080;2023-02-19T03:43:22;9.99;89.19
66343;DHT22;53144;51.524;5.080;2023-02-19T03:45:56;9.99;89.23
66343;DHT22;53144;51.524;5.080;2023-02-19T03:48:34;9.99;89.05
66343;DHT22;53144;51.524;5.080;2023-02-19T03:56:44;10.00;88.86
66343;DHT22;53144;51.524;5.080;2023-02-19T03:59:20;9.96;88.67
66343;DHT22;53144;51.524;5.080;2023-02-19T04:02:15;10.00;88.56
66343;DHT22;53144;51.524;5.080;2023-02-19T04:04:46;10.03;88.42
66343;DHT22;53144;51.524;5.080;2023-02-19T04:07:13;10.03;88.09
66343;DHT22;53144;51.524;5.080;2023-02-19T04:09:43;10.05;88.02
66343;DHT22;53144;51.524;5.080;2023-02-19T04:12:11;10.10;87.84
66343;DHT22;53144;51.524;5.080;2023-02-19T04:14:42;10.05;87.96
66343;DHT22;53144;51.524;5.080;2023-02-19T04:17:16;10.05;87.99
66343;DHT22;53144;51.524;5.080;2023-02-19T04:19:44;10.00;88.52
66343;DHT22;53144;51.524;5.080;2023-02-19T04:22:11;9.96;88.84
66343;DHT22;53144;51.524;5.080;2023-02-19T04:24:38;9.95;88.98
66343;DHT22;53144;51.524;5.080;2023-02-19T04:27:05;9.90;89.18
66343;DHT22;53144;51.524;5.080;2023-02-19T04:29:31;9.83;89.99
66343;DHT22;53144;51.524;5.080;2023-02-19T04:31:56;9.75;90.83
66343;DHT22;53144;51.524;5.080;2023-02-19T04:34:21;9.67;91.18
66343;DHT22;53144;51.524;5.080;2023-02-19T04:36:47;9.57;92.12
66343;DHT22;53144;51.524;5.080;2023-02-19T04:39:12;9.48;93.53
66343;DHT22;53144;51.524;5.080;2023-02-19T04:41:38;9.41;94.06
66343;DHT22;53144;51.524;5.080;2023-02-19T04:44:03;9.35;94.10
66343;DHT22;53144;51.524;5.080;2023-02-19T04:46:31;9.31;93.76
66343;DHT22;53144;51.524;5.080;2023-02-19T04:48:56;9.34;93.89
66343;DHT22;53144;51.524;5.080;2023-02-19T04:51:22;9.32;93.77
66343;DHT22;53144;51.524;5.080;2023-02-19T04:53:47;9.27;94.23
66343;DHT22;53144;51.524;5.080;2023-02-19T04:56:14;9.34;93.76
66343;DHT22;53144;51.524;5.080;2023-02-19T04:58:43;9.30;93.85
66343;DHT22;53144;51.524;5.080;2023-02-19T05:01:10;9.30;93.05
66343;DHT22;53144;51.524;5.080;2023-02-19T05:03:35;9.30;93.71
66343;DHT22;53144;51.524;5.080;2023-02-19T05:06:03;9.27;93.66
66343;DHT22;53144;51.524;5.080;2023-02-19T05:08:28;9.26;93.46
66343;DHT22;53144;51.524;5.080;2023-02-19T05:10:57;9.31;93.13
66343;DHT22;53144;51.524;5.080;2023-02-19T05:13:23;9.32;93.07
66343;DHT22;53144;51.524;5.080;2023-02-19T05:16:05;9.27;93.43
66343;DHT22;53144;51.524;5.080;2023-02-19T05:18:31;9.21;93.64
66343;DHT22;53144;51.524;5.080;2023-02-19T05:21:00;9.26;92.97
66343;DHT22;53144;51.524;5.080;2023-02-19T05:23:26;9.23;93.43
66343;DHT22;53144;51.524;5.080;2023-02-19T05:25:51;9.21;93.38
66343;DHT22;53144;51.524;5.080;2023-02-19T05:28:17;9.21;93.08
66343;DHT22;53144;51.524;5.080;2023-02-19T05:30:48;9.20;93.11
66343;DHT22;53144;51.524;5.080;2023-02-19T05:33:15;9.24;92.79
66343;DHT22;53144;51.524;5.080;2023-02-19T05:35:48;9.23;92.98
66343;DHT22;53144;51.524;5.080;2023-02-19T05:38:14;9.16;92.95
66343;DHT22;53144;51.524;5.080;2023-02-19T05:40:40;9.24;92.36
66343;DHT22;53144;51.524;5.080;2023-02-19T05:43:06;9.18;92.78
66343;DHT22;53144;51.524;5.080;2023-02-19T05:45:32;9.18;92.64
66343;DHT22;53144;51.524;5.080;2023-02-19T05:47:57;9.07;92.69
66343;DHT22;53144;51.524;5.080;2023-02-19T05:50:22;9.09;92.54
66343;DHT22;53144;51.524;5.080;2023-02-19T05:52:48;9.14;92.53
66343;DHT22;53144;51.524;5.080;2023-02-19T05:55:13;9.18;92.12
66343;DHT22;53144;51.524;5.080;2023-02-19T05:57:46;9.14;92.32
66343;DHT22;53144;51.524;5.080;2023-02-19T06:00:15;9.24;91.24
66343;DHT22;53144;51.524;5.080;2023-02-19T06:02:42;9.24;91.32
66343;DHT22;53144;51.524;5.080;2023-02-19T06:05:08;9.23;91.30
66343;DHT22;53144;51.524;5.080;2023-02-19T06:07:33;9.20;91.41
66343;DHT22;53144;51.524;5.080;2023-02-19T06:09:59;9.24;90.90
66343;DHT22;53144;51.524;5.080;2023-02-19T06:12:25;9.24;90.68
66343;DHT22;53144;51.524;5.080;2023-02-19T06:14:50;9.27;90.62
66343;DHT22;53144;51.524;5.080;2023-02-19T06:17:15;9.28;90.52
66343;DHT22;53144;51.524;5.080;2023-02-19T06:19:41;9.30;90.47
66343;DHT22;53144;51.524;5.080;2023-02-19T06:22:06;9.27;90.47
66343;DHT22;53144;51.524;5.080;2023-02-19T06:24:32;9.20;91.09
66343;DHT22;53144;51.524;5.080;2023-02-19T06:26:57;9.23;90.55
66343;DHT22;53144;51.524;5.080;2023-02-19T06:29:23;9.26;90.70
66343;DHT22;53144;51.524;5.080;2023-02-19T06:31:48;9.32;90.34
66343;DHT22;53144;51.524;5.080;2023-02-19T06:34:14;9.26;90.63
66343;DHT22;53144;51.524;5.080;2023-02-19T06:36:39;9.26;90.61
66343;DHT22;53144;51.524;5.080;2023-02-19T06:39:04;9.28;90.52
66343;DHT22;53144;51.524;5.080;2023-02-19T06:41:30;9.30;90.43
66343;DHT22;53144;51.524;5.080;2023-02-19T06:43:56;9.30;90.48
66343;DHT22;53144;51.524;5.080;2023-02-19T06:46:22;9.26;90.80
66343;DHT22;53144;51.524;5.080;2023-02-19T06:48:47;9.27;91.61
66343;DHT22;53144;51.524;5.080;2023-02-19T06:51:13;9.20;91.98
66343;DHT22;53144;51.524;5.080;2023-02-19T06:53:40;9.13;92.32
66343;DHT22;53144;51.524;5.080;2023-02-19T06:56:20;9.16;92.79
66343;DHT22;53144;51.524;5.080;2023-02-19T06:58:47;9.04;93.62
66343;DHT22;53144;51.524;5.080;2023-02-19T07:01:12;9.01;94.10
66343;DHT22;53144;51.524;5.080;2023-02-19T07:03:37;8.97;94.73
66343;DHT22;53144;51.524;5.080;2023-02-19T07:06:03;8.87;94.72
66343;DHT22;53144;51.524;5.080;2023-02-19T07:08:28;8.89;94.70
66343;DHT22;53144;51.524;5.080;2023-02-19T07:10:56;8.90;94.78
66343;DHT22;53144;51.524;5.080;2023-02-19T07:13:22;8.91;94.57
66343;DHT22;53144;51.524;5.080;2023-02-19T07:15:48;8.99;94.50
66343;DHT22;53144;51.524;5.080;2023-02-19T07:18:13;8.94;94.54
66343;DHT22;53144;51.524;5.080;2023-02-19T07:20:39;8.96;94.60
66343;DHT22;53144;51.524;5.080;2023-02-19T07:23:04;8.97;94.67
66343;DHT22;53144;51.524;5.080;2023-02-19T07:25:29;9.00;94.63
66343;DHT22;53144;51.524;5.080;2023-02-19T07:27:55;8.99;94.51
66343;DHT22;53144;51.524;5.080;2023-02-19T07:30:21;8.96;94.52
66343;DHT22;53144;51.524;5.080;2023-02-19T07:32:46;8.99;94.11
66343;DHT22;53144;51.524;5.080;2023-02-19T07:35:11;8.97;94.53
66343;DHT22;53144;51.524;5.080;2023-02-19T07:37:37;8.91;94.76
66343;DHT22;53144;51.524;5.080;2023-02-19T07:40:02;8.94;94.99
66343;DHT22;53144;51.524;5.080;2023-02-19T07:42:28;8.94;94.57
66343;DHT22;53144;51.524;5.080;2023-02-19T07:44:53;8.96;94.46
66343;DHT22;53144;51.524;5.080;2023-02-19T07:47:19;9.01;94.39
66343;DHT22;53144;51.524;5.080;2023-02-19T07:49:44;9.06;94.49
66343;DHT22;53144;51.524;5.080;2023-02-19T07:52:09;9.09;94.29
66343;DHT22;53144;51.524;5.080;2023-02-19T07:54:34;9.13;93.93
66343;DHT22;53144;51.524;5.080;2023-02-19T07:57:00;9.13;93.87
66343;DHT22;53144;51.524;5.080;2023-02-19T07:59:25;9.14;93.89
66343;DHT22;53144;51.524;5.080;2023-02-19T08:01:50;9.13;93.92
66343;DHT22;53144;51.524;5.080;2023-02-19T08:04:34;9.17;93.53
66343;DHT22;53144;51.524;5.080;2023-02-19T08:07:00;9.13;93.79
66343;DHT22;53144;51.524;5.080;2023-02-19T08:09:25;9.16;93.01
66343;DHT22;53144;51.524;5.080;2023-02-19T08:11:51;9.20;93.27
66343;DHT22;53144;51.524;5.080;2023-02-19T08:14:35;9.24;93.02
66343;DHT22;53144;51.524;5.080;2023-02-19T08:17:00;9.30;92.91
66343;DHT22;53144;51.524;5.080;2023-02-19T08:19:25;9.28;92.96
66343;DHT22;53144;51.524;5.080;2023-02-19T08:21:51;9.24;93.13
66343;DHT22;53144;51.524;5.080;2023-02-19T08:24:17;9.21;93.77
66343;DHT22;53144;51.524;5.080;2023-02-19T08:26:43;9.10;94.43
66343;DHT22;53144;51.524;5.080;2023-02-19T08:29:08;9.09;94.83
66343;DHT22;53144;51.524;5.080;2023-02-19T08:31:33;9.09;94.87
66343;DHT22;53144;51.524;5.080;2023-02-19T08:33:59;9.06;94.95
66343;DHT22;53144;51.524;5.080;2023-02-19T08:36:24;9.04;94.99
66343;DHT22;53144;51.524;5.080;2023-02-19T08:38:50;9.14;93.94
66343;DHT22;53144;51.524;5.080;2023-02-19T08:41:15;9.17;93.91
66343;DHT22;53144;51.524;5.080;2023-02-19T08:43:41;9.23;93.89
66343;DHT22;53144;51.524;5.080;2023-02-19T08:46:07;9.27;93.79
66343;DHT22;53144;51.524;5.080;2023-02-19T08:48:34;9.26;93.19
66343;DHT22;53144;51.524;5.080;2023-02-19T08:51:02;9.38;93.07
66343;DHT22;53144;51.524;5.080;2023-02-19T08:53:29;9.40;92.78
66343;DHT22;53144;51.524;5.080;2023-02-19T08:55:54;9.52;92.70
66343;DHT22;53144;51.524;5.080;2023-02-19T08:58:20;9.51;92.47
66343;DHT22;53144;51.524;5.080;2023-02-19T09:00:46;9.48;91.90
66343;DHT22;53144;51.524;5.080;2023-02-19T09:03:11;9.54;91.48
66343;DHT22;53144;51.524;5.080;2023-02-19T09:05:37;9.54;92.07
66343;DHT22;53144;51.524;5.080;2023-02-19T09:08:03;9.55;91.36
66343;DHT22;53144;51.524;5.080;2023-02-19T09:10:29;9.58;91.05
66343;DHT22;53144;51.524;5.080;2023-02-19T09:12:54;9.68;91.67
66343;DHT22;53144;51.524;5.080;2023-02-19T09:15:19;9.63;91.15
66343;DHT22;53144;51.524;5.080;2023-02-19T09:17:49;9.67;91.05
66343;DHT22;53144;51.524;5.080;2023-02-19T09:20:14;9.72;91.34
66343;DHT22;53144;51.524;5.080;2023-02-19T09:22:40;9.69;90.35
66343;DHT22;53144;51.524;5.080;2023-02-19T09:25:05;9.68;90.37
66343;DHT22;53144;51.524;5.080;2023-02-19T09:27:30;9.79;90.54
66343;DHT22;53144;51.524;5.080;2023-02-19T09:29:56;9.72;90.86
66343;DHT22;53144;51.524;5.080;2023-02-19T09:32:21;9.77;90.44
66343;DHT22;53144;51.524;5.080;2023-02-19T09:34:48;9.81;90.37
66343;DHT22;53144;51.524;5.080;2023-02-19T09:37:13;9.79;89.66
66343;DHT22;53144;51.524;5.080;2023-02-19T09:39:39;9.82;89.75
66343;DHT22;53144;51.524;5.080;2023-02-19T09:42:31;9.89;90.02
66343;DHT22;53144;51.524;5.080;2023-02-19T09:44:58;9.81;89.83
66343;DHT22;53144;51.524;5.080;2023-02-19T09:47:29;9.82;90.27
66343;DHT22;53144;51.524;5.080;2023-02-19T09:50:01;9.85;90.11
66343;DHT22;53144;51.524;5.080;2023-02-19T09:52:38;9.82;89.99
66343;DHT22;53144;51.524;5.080;2023-02-19T09:57:52;9.88;89.19
66343;DHT22;53144;51.524;5.080;2023-02-19T10:00:26;9.96;88.55
66343;DHT22;53144;51.524;5.080;2023-02-19T10:02:59;10.09;88.49
66343;DHT22;53144;51.524;5.080;2023-02-19T10:05:27;10.09;88.63
66343;DHT22;53144;51.524;5.080;2023-02-19T10:07:52;10.17;88.24
66343;DHT22;53144;51.524;5.080;2023-02-19T10:10:28;10.00;87.67
66343;DHT22;53144;51.524;5.080;2023-02-19T10:13:00;9.98;87.68
66343;DHT22;53144;51.524;5.080;2023-02-19T10:16:03;10.05;88.26
66343;DHT22;53144;51.524;5.080;2023-02-19T10:18:39;9.95;88.31
66343;DHT22;53144;51.524;5.080;2023-02-19T10:21:06;9.88;89.04
66343;DHT22;53144;51.524;5.080;2023-02-19T10:23:32;9.71;90.50
66343;DHT22;53144;51.524;5.080;2023-02-19T10:25:58;9.63;91.35
66343;DHT22;53144;51.524;5.080;2023-02-19T10:28:25;9.59;91.81
66343;DHT22;53144;51.524;5.080;2023-02-19T10:30:55;9.55;92.14
66343;DHT22;53144;51.524;5.080;2023-02-19T10:33:21;9.51;92.45
66343;DHT22;53144;51.524;5.080;2023-02-19T10:36:05;9.71;92.67
66343;DHT22;53144;51.524;5.080;2023-02-19T10:38:33;9.90;92.09
66343;DHT22;53144;51.524;5.080;2023-02-19T10:41:03;9.82;91.56
66343;DHT22;53144;51.524;5.080;2023-02-19T10:43:34;9.88;91.58
66343;DHT22;53144;51.524;5.080;2023-02-19T10:46:06;9.92;91.64
66343;DHT22;53144;51.524;5.080;2023-02-19T10:48:41;9.98;91.49
66343;DHT22;53144;51.524;5.080;2023-02-19T10:51:10;10.05;90.70
66343;DHT22;53144;51.524;5.080;2023-02-19T10:53:45;10.07;89.41
66343;DHT22;53144;51.524;5.080;2023-02-19T10:56:15;10.05;89.19
66343;DHT22;53144;51.524;5.080;2023-02-19T10:58:42;10.34;88.74
66343;DHT22;53144;51.524;5.080;2023-02-19T11:01:20;10.48;87.72
66343;DHT22;53144;51.524;5.080;2023-02-19T11:03:50;10.57;87.13
66343;DHT22;53144;51.524;5.080;2023-02-19T11:06:18;10.86;85.28
66343;DHT22;53144;51.524;5.080;2023-02-19T11:11:36;10.53;84.72
66343;DHT22;53144;51.524;5.080;2023-02-19T11:14:22;10.47;84.96
66343;DHT22;53144;51.524;5.080;2023-02-19T11:16:55;10.68;84.14
66343;DHT22;53144;51.524;5.080;2023-02-19T11:21:51;10.33;84.78
66343;DHT22;53144;51.524;5.080;2023-02-19T11:26:48;10.53;84.04
66343;DHT22;53144;51.524;5.080;2023-02-19T11:29:16;10.51;84.05
66343;DHT22;53144;51.524;5.080;2023-02-19T11:31:44;10.33;83.53
66343;DHT22;53144;51.524;5.080;2023-02-19T11:36:39;10.20;84.14
66343;DHT22;53144;51.524;5.080;2023-02-19T11:50:20;10.07;83.63
66343;DHT22;53144;51.524;5.080;2023-02-19T11:56:13;10.05;84.11
66343;DHT22;53144;51.524;5.080;2023-02-19T12:01:57;10.17;83.65
66343;DHT22;53144;51.524;5.080;2023-02-19T12:07:16;10.30;84.36
66343;DHT22;53144;51.524;5.080;2023-02-19T12:15:30;10.64;84.00
66343;DHT22;53144;51.524;5.080;2023-02-19T12:36:31;10.44;82.77
66343;DHT22;53144;51.524;5.080;2023-02-19T12:44:45;10.46;81.88
66343;DHT22;53144;51.524;5.080;2023-02-19T12:47:19;10.48;81.53
66343;DHT22;53144;51.524;5.080;2023-02-19T12:50:03;10.46;81.31
66343;DHT22;53144;51.524;5.080;2023-02-19T12:52:32;10.53;81.52
66343;DHT22;53144;51.524;5.080;2023-02-19T12:55:15;10.63;81.59
66343;DHT22;53144;51.524;5.080;2023-02-19T12:57:42;10.65;81.70
66343;DHT22;53144;51.524;5.080;2023-02-19T13:02:54;10.37;81.79
66343;DHT22;53144;51.524;5.080;2023-02-19T13:08:29;9.98;82.69
66343;DHT22;53144;51.524;5.080;2023-02-19T13:11:09;9.92;83.77
66343;DHT22;53144;51.524;5.080;2023-02-19T13:13:54;9.65;84.38
66343;DHT22;53144;51.524;5.080;2023-02-19T13:16:23;9.69;84.72
66343;DHT22;53144;51.524;5.080;2023-02-19T13:18:53;9.62;84.90
66343;DHT22;53144;51.524;5.080;2023-02-19T13:21:21;9.54;84.21
66343;DHT22;53144;51.524;5.080;2023-02-19T13:24:10;9.61;84.46
66343;DHT22;53144;51.524;5.080;2023-02-19T13:27:09;9.58;84.63
66343;DHT22;53144;51.524;5.080;2023-02-19T13:30:06;9.42;84.35
66343;DHT22;53144;51.524;5.080;2023-02-19T13:36:07;9.24;85.58
66343;DHT22;53144;51.524;5.080;2023-02-19T13:38:44;9.23;85.77
66343;DHT22;53144;51.524;5.080;2023-02-19T13:41:29;9.17;85.96
66343;DHT22;53144;51.524;5.080;2023-02-19T13:43:58;9.21;86.24
66343;DHT22;53144;51.524;5.080;2023-02-19T13:46:32;9.11;86.70
66343;DHT22;53144;51.524;5.080;2023-02-19T13:51:59;9.23;86.57
66343;DHT22;53144;51.524;5.080;2023-02-19T13:54:33;9.07;86.95
66343;DHT22;53144;51.524;5.080;2023-02-19T13:59:49;9.17;87.29
66343;DHT22;53144;51.524;5.080;2023-02-19T14:04:57;9.06;86.90
66343;DHT22;53144;51.524;5.080;2023-02-19T14:09:56;9.09;87.13
66343;DHT22;53144;51.524;5.080;2023-02-19T14:12:33;9.17;86.83
66343;DHT22;53144;51.524;5.080;2023-02-19T14:18:45;9.00;87.03
66343;DHT22;53144;51.524;5.080;2023-02-19T14:21:25;9.07;87.16
66343;DHT22;53144;51.524;5.080;2023-02-19T14:23:58;9.18;86.77
66343;DHT22;53144;51.524;5.080;2023-02-19T14:26:24;9.20;86.70
66343;DHT22;53144;51.524;5.080;2023-02-19T14:28:51;9.14;86.35
66343;DHT22;53144;51.524;5.080;2023-02-19T14:31:29;9.03;86.40
66343;DHT22;53144;51.524;5.080;2023-02-19T14:33:58;9.04;86.30
66343;DHT22;53144;51.524;5.080;2023-02-19T14:36:42;9.00;86.58
66343;DHT22;53144;51.524;5.080;2023-02-19T14:39:12;9.00;86.57
66343;DHT22;53144;51.524;5.080;2023-02-19T14:41:41;9.04;86.40
66343;DHT22;53144;51.524;5.080;2023-02-19T14:44:39;9.14;86.55
66343;DHT22;53144;51.524;5.080;2023-02-19T14:47:12;9.07;85.98
66343;DHT22;53144;51.524;5.080;2023-02-19T14:50:00;9.01;86.67
66343;DHT22;53144;51.524;5.080;2023-02-19T14:52:53;8.93;86.92
66343;DHT22;53144;51.524;5.080;2023-02-19T14:55:34;8.96;87.17
66343;DHT22;53144;51.524;5.080;2023-02-19T14:58:04;8.94;86.91
66343;DHT22;53144;51.524;5.080;2023-02-19T15:00:38;8.99;86.74
66343;DHT22;53144;51.524;5.080;2023-02-19T15:03:05;8.77;86.58
66343;DHT22;53144;51.524;5.080;2023-02-19T15:05:33;8.75;86.48
66343;DHT22;53144;51.524;5.080;2023-02-19T15:08:03;8.72;86.40
66343;DHT22;53144;51.524;5.080;2023-02-19T15:10:32;8.70;86.34
66343;DHT22;53144;51.524;5.080;2023-02-19T15:13:04;8.65;86.55
66343;DHT22;53144;51.524;5.080;2023-02-19T15:15:33;8.63;86.73
66343;DHT22;53144;51.524;5.080;2023-02-19T15:18:03;8.65;87.09
66343;DHT22;53144;51.524;5.080;2023-02-19T15:20:32;8.73;86.99
66343;DHT22;53144;51.524;5.080;2023-02-19T15:22:58;8.69;87.31
66343;DHT22;53144;51.524;5.080;2023-02-19T15:25:31;8.72;87.26
66343;DHT22;53144;51.524;5.080;2023-02-19T15:28:17;8.62;87.56
66343;DHT22;53144;51.524;5.080;2023-02-19T15:30:42;8.65;87.97
66343;DHT22;53144;51.524;5.080;2023-02-19T15:33:15;8.56;88.28
66343;DHT22;53144;51.524;5.080;2023-02-19T15:35:47;8.55;88.38
66343;DHT22;53144;51.524;5.080;2023-02-19T15:38:12;8.63;88.51
66343;DHT22;53144;51.524;5.080;2023-02-19T15:40:38;8.60;88.09
66343;DHT22;53144;51.524;5.080;2023-02-19T15:43:03;8.45;88.54
66343;DHT22;53144;51.524;5.080;2023-02-19T15:45:30;8.42;88.88
66343;DHT22;53144;51.524;5.080;2023-02-19T15:48:08;8.41;88.92
66343;DHT22;53144;51.524;5.080;2023-02-19T15:50:40;8.45;88.96
66343;DHT22;53144;51.524;5.080;2023-02-19T15:53:28;8.31;89.66
66343;DHT22;53144;51.524;5.080;2023-02-19T15:56:08;8.08;90.54
66343;DHT22;53144;51.524;5.080;2023-02-19T16:03:49;7.94;92.27
66343;DHT22;53144;51.524;5.080;2023-02-19T16:06:16;7.90;92.89
66343;DHT22;53144;51.524;5.080;2023-02-19T16:08:43;7.93;92.76
66343;DHT22;53144;51.524;5.080;2023-02-19T16:13:47;7.95;90.34
66343;DHT22;53144;51.524;5.080;2023-02-19T16:16:28;7.95;89.42
66343;DHT22;53144;51.524;5.080;2023-02-19T16:18:58;8.00;88.23
66343;DHT22;53144;51.524;5.080;2023-02-19T16:21:25;8.01;88.25
66343;DHT22;53144;51.524;5.080;2023-02-19T16:24:00;8.01;88.06
66343;DHT22;53144;51.524;5.080;2023-02-19T16:26:25;8.02;87.52
66343;DHT22;53144;51.524;5.080;2023-02-19T16:28:53;8.04;87.25
66343;DHT22;53144;51.524;5.080;2023-02-19T16:31:20;8.05;87.36
66343;DHT22;53144;51.524;5.080;2023-02-19T16:33:47;8.04;86.84
66343;DHT22;53144;51.524;5.080;2023-02-19T16:36:51;8.02;86.82
66343;DHT22;53144;51.524;5.080;2023-02-19T16:39:19;8.07;86.48
66343;DHT22;53144;51.524;5.080;2023-02-19T16:46:54;7.90;87.29
66343;DHT22;53144;51.524;5.080;2023-02-19T16:49:22;7.86;87.86
66343;DHT22;53144;51.524;5.080;2023-02-19T16:51:48;7.84;87.26
66343;DHT22;53144;51.524;5.080;2023-02-19T16:54:14;7.94;87.64
66343;DHT22;53144;51.524;5.080;2023-02-19T16:56:42;7.94;87.37
66343;DHT22;53144;51.524;5.080;2023-02-19T16:59:10;7.94;87.58
66343;DHT22;53144;51.524;5.080;2023-02-19T17:01:36;7.90;87.09
66343;DHT22;53144;51.524;5.080;2023-02-19T17:04:02;7.89;86.82
66343;DHT22;53144;51.524;5.080;2023-02-19T17:06:28;7.94;87.08
66343;DHT22;53144;51.524;5.080;2023-02-19T17:08:53;7.83;87.31
66343;DHT22;53144;51.524;5.080;2023-02-19T17:11:19;7.83;87.50
66343;DHT22;53144;51.524;5.080;2023-02-19T17:13:45;7.74;87.66
66343;DHT22;53144;51.524;5.080;2023-02-19T17:16:23;7.76;88.02
66343;DHT22;53144;51.524;5.080;2023-02-19T17:18:49;7.84;87.63
66343;DHT22;53144;51.524;5.080;2023-02-19T17:21:25;7.73;87.89
66343;DHT22;53144;51.524;5.080;2023-02-19T17:23:52;7.70;87.72
66343;DHT22;53144;51.524;5.080;2023-02-19T17:26:21;7.74;87.78
66343;DHT22;53144;51.524;5.080;2023-02-19T17:28:46;7.70;87.72
66343;DHT22;53144;51.524;5.080;2023-02-19T17:31:12;7.69;87.94
66343;DHT22;53144;51.524;5.080;2023-02-19T17:33:42;7.62;87.97
66343;DHT22;53144;51.524;5.080;2023-02-19T17:36:15;7.53;88.42
66343;DHT22;53144;51.524;5.080;2023-02-19T17:38:41;7.36;88.52
66343;DHT22;53144;51.524;5.080;2023-02-19T17:41:06;7.32;88.94
66343;DHT22;53144;51.524;5.080;2023-02-19T17:43:32;7.28;89.18
66343;DHT22;53144;51.524;5.080;2023-02-19T17:45:57;7.22;89.25
66343;DHT22;53144;51.524;5.080;2023-02-19T17:48:23;7.16;89.37
66343;DHT22;53144;51.524;5.080;2023-02-19T17:50:48;7.11;89.27
66343;DHT22;53144;51.524;5.080;2023-02-19T17:53:14;7.08;89.49
66343;DHT22;53144;51.524;5.080;2023-02-19T17:55:39;7.09;89.38
66343;DHT22;53144;51.524;5.080;2023-02-19T17:58:05;7.02;89.13